createdAt,value
2019-03-06T00:00:44.497Z,20.62
2019-03-06T00:03:15.009Z,22.42
2019-03-06T00:05:43.870Z,22.10
2019-03-06T00:08:12.852Z,20.82
2019-03-06T00:10:41.742Z,20.97
2019-03-06T00:13:10.611Z,17.95
2019-03-06T00:15:39.541Z,16.05
2019-03-06T00:18:08.409Z,14.28
2019-03-06T00:20:37.272Z,14.75
2019-03-06T00:23:06.447Z,14.47
2019-03-06T00:25:35.304Z,15.10
2019-03-06T00:28:04.167Z,17.37
2019-03-06T00:30:33.107Z,18.73
2019-03-06T00:33:01.969Z,19.15
2019-03-06T00:35:35.123Z,17.77
2019-03-06T00:38:03.979Z,18.60
2019-03-06T00:40:51.153Z,18.55
2019-03-06T00:43:20.029Z,17.42
2019-03-06T00:45:48.892Z,17.12
2019-03-06T00:48:18.732Z,19.30
2019-03-06T00:50:47.788Z,17.82
2019-03-06T00:53:16.646Z,19.73
2019-03-06T00:55:45.507Z,20.70
2019-03-06T00:58:14.612Z,20.32
2019-03-06T01:00:43.487Z,21.62
2019-03-06T01:03:12.542Z,22.37
2019-03-06T01:05:41.398Z,24.02
2019-03-06T01:08:10.742Z,24.72
2019-03-06T01:10:39.713Z,23.52
2019-03-06T01:13:08.599Z,25.70
2019-03-06T01:15:37.855Z,25.62
2019-03-06T01:18:06.716Z,26.15
2019-03-06T01:20:36.671Z,26.33
2019-03-06T01:23:05.527Z,25.17
2019-03-06T01:25:34.458Z,26.45
2019-03-06T01:28:03.320Z,26.70
2019-03-06T01:30:32.188Z,28.25
2019-03-06T01:33:14.492Z,28.87
2019-03-06T01:36:01.217Z,27.55
2019-03-06T01:38:46.394Z,27.55
2019-03-06T01:41:23.083Z,30.35
2019-03-06T01:43:59.459Z,34.20
2019-03-06T01:46:28.499Z,35.33
2019-03-06T01:48:57.356Z,39.33
2019-03-06T01:51:26.228Z,39.15
2019-03-06T01:53:55.275Z,42.48
2019-03-06T01:56:24.135Z,42.15
2019-03-06T01:58:53.005Z,42.70
2019-03-06T02:01:22.832Z,43.38
2019-03-06T02:03:51.703Z,43.45
2019-03-06T02:06:21.622Z,43.83
2019-03-06T02:08:50.491Z,41.33
2019-03-06T02:11:19.352Z,44.13
2019-03-06T02:13:48.222Z,44.48
2019-03-06T02:16:17.081Z,43.00
2019-03-06T02:18:45.954Z,42.90
2019-03-06T02:21:14.808Z,41.05
2019-03-06T02:23:43.908Z,40.23
2019-03-06T02:26:13.849Z,40.20
2019-03-06T02:28:42.706Z,40.33
2019-03-06T02:31:11.815Z,39.05
2019-03-06T02:33:40.672Z,40.08
2019-03-06T02:36:09.542Z,41.18
2019-03-06T02:38:38.404Z,44.33
2019-03-06T02:41:07.285Z,46.35
2019-03-06T02:43:36.415Z,50.20
2019-03-06T02:46:05.272Z,48.48
2019-03-06T02:48:34.132Z,46.00
2019-03-06T02:51:03.001Z,43.33
2019-03-06T02:53:31.945Z,46.13
2019-03-06T02:56:00.835Z,45.50
2019-03-06T02:58:31.372Z,45.45
2019-03-06T03:01:10.692Z,48.20
2019-03-06T03:03:57.602Z,48.30
2019-03-06T03:06:28.107Z,45.10
2019-03-06T03:08:57.220Z,45.63
2019-03-06T03:11:26.072Z,44.95
2019-03-06T03:13:54.940Z,46.37
2019-03-06T03:16:23.879Z,46.05
2019-03-06T03:18:52.744Z,46.33
2019-03-06T03:21:22.697Z,44.77
2019-03-06T03:23:51.555Z,46.95
2019-03-06T03:26:20.419Z,49.00
2019-03-06T03:28:49.296Z,46.20
2019-03-06T03:31:18.189Z,49.05
2019-03-06T03:33:47.037Z,48.35
2019-03-06T03:36:15.893Z,47.55
2019-03-06T03:38:44.776Z,46.65
2019-03-06T03:41:13.639Z,47.13
2019-03-06T03:43:42.497Z,46.88
2019-03-06T03:46:11.584Z,48.45
2019-03-06T03:48:40.468Z,50.03
2019-03-06T03:51:09.560Z,50.15
2019-03-06T03:53:38.423Z,49.27
2019-03-06T03:56:07.389Z,48.73
2019-03-06T03:58:36.243Z,49.53
2019-03-06T04:01:05.124Z,48.35
2019-03-06T04:03:33.993Z,47.50
2019-03-06T04:06:02.917Z,47.67
2019-03-06T04:08:32.165Z,48.40
2019-03-06T04:11:01.042Z,47.67
2019-03-06T04:13:29.904Z,46.83
2019-03-06T04:15:58.799Z,47.43
2019-03-06T04:18:27.644Z,50.95
2019-03-06T04:20:56.507Z,47.85
2019-03-06T04:23:25.384Z,48.78
2019-03-06T04:25:54.244Z,69.37
2019-03-06T04:28:23.191Z,63.80
2019-03-06T04:30:52.714Z,55.65
2019-03-06T04:33:21.585Z,49.88
2019-03-06T04:35:50.452Z,49.88
2019-03-06T04:38:19.355Z,64.80
2019-03-06T04:40:48.235Z,58.17
2019-03-06T04:43:17.102Z,67.55
2019-03-06T04:45:46.204Z,53.50
2019-03-06T04:48:15.076Z,51.88
2019-03-06T04:50:43.939Z,51.68
2019-03-06T04:53:12.813Z,52.45
2019-03-06T04:55:41.685Z,51.70
2019-03-06T04:58:10.558Z,51.95
2019-03-06T05:00:39.499Z,55.33
2019-03-06T05:03:08.603Z,53.70
2019-03-06T05:05:37.483Z,51.42
2019-03-06T05:08:06.343Z,54.27
2019-03-06T05:10:35.213Z,53.35
2019-03-06T05:13:04.256Z,53.85
2019-03-06T05:15:33.110Z,52.25
2019-03-06T05:18:10.315Z,56.48
2019-03-06T05:20:39.174Z,54.60
2019-03-06T05:23:08.052Z,51.33
2019-03-06T05:25:36.934Z,50.95
2019-03-06T05:28:06.795Z,51.83
2019-03-06T05:30:36.968Z,53.42
2019-03-06T05:33:07.384Z,57.75
2019-03-06T05:35:54.553Z,56.80
2019-03-06T05:38:36.992Z,53.45
2019-03-06T05:41:06.104Z,55.75
2019-03-06T05:43:34.974Z,57.67
2019-03-06T05:46:04.918Z,65.30
2019-03-06T05:48:33.792Z,59.42
2019-03-06T05:51:02.697Z,57.33
2019-03-06T05:53:31.600Z,60.40
2019-03-06T05:56:00.471Z,61.60
2019-03-06T05:58:29.344Z,60.65
2019-03-06T06:00:58.210Z,59.88
2019-03-06T06:03:27.384Z,58.38
2019-03-06T06:05:56.264Z,57.05
2019-03-06T06:08:25.128Z,58.95
2019-03-06T06:10:54.003Z,57.48
2019-03-06T06:13:22.859Z,56.28
2019-03-06T06:15:51.735Z,58.08
2019-03-06T06:18:20.614Z,53.08
2019-03-06T06:20:51.361Z,51.55
2019-03-06T06:23:27.863Z,49.35
2019-03-06T06:25:56.730Z,47.08
2019-03-06T06:28:25.619Z,48.02
2019-03-06T06:30:54.651Z,45.85
2019-03-06T06:33:23.755Z,40.08
2019-03-06T06:35:52.619Z,37.08
2019-03-06T06:38:21.504Z,37.67
2019-03-06T06:40:50.347Z,37.15
2019-03-06T06:43:19.613Z,39.27
2019-03-06T06:45:48.476Z,38.73
2019-03-06T06:48:21.916Z,36.90
2019-03-06T06:51:01.723Z,39.75
2019-03-06T06:53:27.067Z,38.50
2019-03-06T06:56:03.470Z,37.10
2019-03-06T06:58:33.872Z,38.02
2019-03-06T07:01:06.156Z,33.42
2019-03-06T07:03:55.047Z,29.92
2019-03-06T07:06:25.560Z,31.33
2019-03-06T07:08:56.060Z,29.77
2019-03-06T07:11:27.007Z,28.17
2019-03-06T07:14:13.816Z,24.37
2019-03-06T07:16:44.330Z,25.50
2019-03-06T07:19:14.827Z,23.35
2019-03-06T07:21:57.459Z,25.40
2019-03-06T07:24:38.133Z,21.37
2019-03-06T07:27:08.635Z,21.12
2019-03-06T07:29:39.131Z,19.98
2019-03-06T07:32:12.595Z,19.42
2019-03-06T07:34:47.496Z,19.27
2019-03-06T07:37:28.387Z,21.17
2019-03-06T07:39:52.574Z,20.95
2019-03-06T07:42:26.003Z,19.73
2019-03-06T07:45:17.623Z,19.45
2019-03-06T07:47:57.128Z,19.73
2019-03-06T07:50:27.643Z,19.85
2019-03-06T07:53:16.755Z,19.60
2019-03-06T07:55:47.499Z,18.35
2019-03-06T07:58:34.383Z,18.07
2019-03-06T08:01:03.325Z,18.27
2019-03-06T08:03:33.155Z,18.32
2019-03-06T08:06:02.264Z,17.82
2019-03-06T08:08:31.153Z,18.82
2019-03-06T08:11:00.957Z,19.48
2019-03-06T08:13:31.520Z,18.37
2019-03-06T08:16:03.337Z,18.55
2019-03-06T08:18:36.746Z,17.23
2019-03-06T08:21:07.323Z,17.90
2019-03-06T08:23:37.822Z,16.75
2019-03-06T08:26:06.796Z,16.55
2019-03-06T08:28:35.875Z,14.73
2019-03-06T08:31:09.147Z,12.23
2019-03-06T08:33:38.004Z,10.68
2019-03-06T08:36:06.872Z,12.40
2019-03-06T08:38:35.973Z,9.60
2019-03-06T08:41:06.474Z,10.23
2019-03-06T08:43:35.538Z,9.25
2019-03-06T08:46:21.114Z,9.58
2019-03-06T08:48:57.595Z,9.28
2019-03-06T08:51:37.512Z,10.53
2019-03-06T08:54:18.189Z,10.10
2019-03-06T08:56:51.349Z,8.88
2019-03-06T08:59:22.015Z,9.60
2019-03-06T09:02:00.129Z,8.00
2019-03-06T09:04:25.067Z,8.50
2019-03-06T09:07:10.714Z,8.35
2019-03-06T09:09:41.227Z,7.75
2019-03-06T09:12:11.720Z,6.72
2019-03-06T09:15:04.865Z,6.37
2019-03-06T09:17:51.743Z,6.58
2019-03-06T09:20:36.128Z,7.25
2019-03-06T09:23:09.584Z,6.00
2019-03-06T09:25:45.895Z,6.30
2019-03-06T09:28:23.064Z,6.85
2019-03-06T09:30:53.836Z,6.55
2019-03-06T09:33:27.237Z,7.10
2019-03-06T09:36:16.721Z,5.62
2019-03-06T09:38:57.153Z,7.30
2019-03-06T09:41:39.599Z,7.15
2019-03-06T09:44:18.822Z,8.05
2019-03-06T09:46:55.003Z,7.45
2019-03-06T09:49:28.197Z,7.45
2019-03-06T09:52:04.607Z,7.00
2019-03-06T09:54:41.296Z,6.83
2019-03-06T09:57:20.290Z,6.15
2019-03-06T10:00:08.842Z,6.17
2019-03-06T10:02:39.621Z,6.35
2019-03-06T10:05:16.334Z,6.50
2019-03-06T10:07:53.347Z,6.72
2019-03-06T10:10:32.770Z,7.10
2019-03-06T10:13:08.971Z,5.95
2019-03-06T10:15:42.388Z,5.40
2019-03-06T10:18:26.814Z,4.75
2019-03-06T10:20:55.900Z,3.90
2019-03-06T10:23:24.756Z,4.67
2019-03-06T10:25:53.840Z,5.00
2019-03-06T10:28:27.790Z,4.55
2019-03-06T10:31:02.150Z,4.05
2019-03-06T10:33:24.096Z,4.12
2019-03-06T10:35:52.952Z,5.62
2019-03-06T10:38:21.813Z,6.72
2019-03-06T10:40:50.747Z,6.37
2019-03-06T10:43:19.666Z,5.40
2019-03-06T10:45:48.519Z,4.33
2019-03-06T10:48:17.415Z,4.37
2019-03-06T10:50:46.314Z,4.30
2019-03-06T10:53:15.259Z,5.22
2019-03-06T10:55:44.187Z,5.50
2019-03-06T10:58:13.107Z,4.50
2019-03-06T11:00:43.848Z,4.72
2019-03-06T11:03:12.891Z,3.50
2019-03-06T11:05:42.106Z,3.75
2019-03-06T11:08:11.028Z,3.90
2019-03-06T11:10:40.030Z,3.10
2019-03-06T11:13:09.533Z,3.70
2019-03-06T11:15:38.694Z,3.60
2019-03-06T11:18:08.428Z,3.02
2019-03-06T11:20:37.451Z,2.65
2019-03-06T11:23:08.083Z,2.60
2019-03-06T11:25:39.497Z,2.10
2019-03-06T11:28:09.817Z,2.08
2019-03-06T11:30:40.184Z,2.58
2019-03-06T11:33:09.802Z,2.17
2019-03-06T11:35:38.836Z,2.00
2019-03-06T11:38:08.156Z,2.08
2019-03-06T11:40:37.374Z,2.50
2019-03-06T11:43:07.099Z,2.00
2019-03-06T11:45:37.215Z,2.10
2019-03-06T11:48:06.523Z,2.30
2019-03-06T11:50:40.882Z,2.05
2019-03-06T11:53:06.711Z,2.35
2019-03-06T11:55:35.919Z,2.30
2019-03-06T11:58:05.884Z,2.00
2019-03-06T12:00:36.443Z,2.12
2019-03-06T12:03:06.571Z,2.40
2019-03-06T12:05:36.292Z,2.25
2019-03-06T12:08:06.731Z,2.00
2019-03-06T12:10:35.626Z,1.95
2019-03-06T12:13:06.023Z,1.70
2019-03-06T12:15:34.978Z,2.52
2019-03-06T12:18:04.609Z,2.00
2019-03-06T12:20:33.856Z,1.80
2019-03-06T12:23:02.859Z,1.90
2019-03-06T12:25:31.949Z,1.98
2019-03-06T12:28:01.031Z,1.90
2019-03-06T12:30:30.115Z,2.00
2019-03-06T12:32:59.213Z,1.90
2019-03-06T12:35:28.055Z,1.90
2019-03-06T12:37:56.909Z,1.95
2019-03-06T12:40:26.936Z,1.92
2019-03-06T12:42:55.783Z,2.10
2019-03-06T12:45:24.640Z,2.10
2019-03-06T12:47:58.035Z,2.60
2019-03-06T12:50:28.432Z,2.10
2019-03-06T12:52:57.280Z,1.65
2019-03-06T12:55:26.136Z,1.90
2019-03-06T12:57:59.269Z,1.65
2019-03-06T13:00:26.016Z,1.50
2019-03-06T13:02:55.147Z,1.70
2019-03-06T13:05:24.267Z,1.85
2019-03-06T13:07:53.357Z,1.55
2019-03-06T13:10:22.211Z,1.80
2019-03-06T13:12:51.150Z,2.00
2019-03-06T13:15:26.344Z,1.75
2019-03-06T13:17:56.000Z,1.70
2019-03-06T13:20:24.850Z,1.87
2019-03-06T13:22:54.846Z,1.87
2019-03-06T13:25:24.567Z,1.70
2019-03-06T13:27:57.436Z,1.72
2019-03-06T13:30:26.616Z,1.90
2019-03-06T13:32:57.339Z,1.50
2019-03-06T13:35:27.569Z,1.50
2019-03-06T13:37:56.423Z,1.50
2019-03-06T13:40:25.283Z,1.52
2019-03-06T13:42:54.135Z,1.40
2019-03-06T13:45:24.139Z,1.70
2019-03-06T13:47:52.987Z,1.80
2019-03-06T13:50:22.055Z,1.57
2019-03-06T13:52:51.139Z,1.35
2019-03-06T13:55:19.999Z,1.87
2019-03-06T13:57:49.151Z,1.70
2019-03-06T14:00:22.068Z,1.80
2019-03-06T14:02:53.856Z,1.75
2019-03-06T14:05:23.252Z,1.70
2019-03-06T14:07:56.303Z,1.70
2019-03-06T14:10:23.547Z,1.70
2019-03-06T14:12:52.835Z,1.80
2019-03-06T14:15:22.469Z,1.57
2019-03-06T14:17:51.315Z,1.70
2019-03-06T14:20:22.342Z,1.52
2019-03-06T14:22:51.529Z,1.80
2019-03-06T14:25:21.638Z,1.80
2019-03-06T14:27:50.729Z,1.95
2019-03-06T14:30:21.162Z,1.70
2019-03-06T14:32:50.299Z,1.60
2019-03-06T14:35:19.388Z,1.70
2019-03-06T14:37:48.239Z,1.92
2019-03-06T14:40:27.479Z,1.37
2019-03-06T14:42:56.555Z,2.00
2019-03-06T14:45:25.472Z,1.70
2019-03-06T14:47:54.555Z,1.95
2019-03-06T14:50:23.727Z,2.20
2019-03-06T14:52:52.648Z,1.65
2019-03-06T14:55:21.674Z,1.82
2019-03-06T14:57:50.535Z,1.95
2019-03-06T15:00:20.335Z,1.70
2019-03-06T15:02:49.179Z,1.90
2019-03-06T15:05:19.780Z,1.65
2019-03-06T15:07:48.629Z,2.12
2019-03-06T15:10:17.950Z,1.80
2019-03-06T15:12:46.974Z,1.70
2019-03-06T15:15:19.247Z,1.50
2019-03-06T15:17:48.471Z,1.50
2019-03-06T15:20:21.133Z,1.27
2019-03-06T15:22:50.636Z,1.55
2019-03-06T15:25:20.791Z,1.80
2019-03-06T15:27:49.639Z,1.60
2019-03-06T15:30:18.570Z,1.32
2019-03-06T15:32:47.733Z,1.75
2019-03-06T15:35:16.744Z,1.22
2019-03-06T15:37:45.778Z,1.32
2019-03-06T15:40:22.210Z,1.35
2019-03-06T15:42:50.847Z,1.40
2019-03-06T15:45:21.620Z,1.40
2019-03-06T15:47:50.579Z,1.12
2019-03-06T15:50:19.656Z,1.00
2019-03-06T15:52:48.510Z,1.30
2019-03-06T15:55:18.899Z,1.17
2019-03-06T15:57:47.752Z,1.45
2019-03-06T16:00:19.517Z,1.40
2019-03-06T16:02:48.511Z,1.17
2019-03-06T16:05:18.440Z,1.07
2019-03-06T16:07:47.359Z,1.40
2019-03-06T16:10:16.299Z,1.40
2019-03-06T16:12:46.315Z,1.50
2019-03-06T16:15:15.567Z,1.40
2019-03-06T16:17:44.429Z,1.47
2019-03-06T16:20:14.819Z,1.80
2019-03-06T16:22:44.049Z,1.50
2019-03-06T16:25:13.064Z,1.80
2019-03-06T16:27:41.995Z,1.70
2019-03-06T16:30:12.566Z,1.40
2019-03-06T16:32:41.488Z,1.62
2019-03-06T16:35:10.815Z,1.90
2019-03-06T16:37:39.904Z,1.90
2019-03-06T16:40:16.108Z,1.52
2019-03-06T16:42:45.511Z,1.62
2019-03-06T16:45:15.903Z,1.60
2019-03-06T16:47:45.531Z,2.00
2019-03-06T16:50:16.353Z,1.62
2019-03-06T16:52:45.325Z,1.85
2019-03-06T16:55:16.336Z,1.90
2019-03-06T16:57:45.657Z,1.50
2019-03-06T17:00:18.497Z,1.80
2019-03-06T17:02:47.351Z,1.82
2019-03-06T17:05:18.059Z,1.92
2019-03-06T17:07:47.746Z,2.15
2019-03-06T17:10:17.543Z,1.70
2019-03-06T17:12:46.463Z,2.00
2019-03-06T17:15:17.263Z,2.00
2019-03-06T17:17:46.487Z,1.85
2019-03-06T17:20:19.521Z,2.20
2019-03-06T17:22:48.716Z,2.08
2019-03-06T17:25:17.643Z,5.45
2019-03-06T17:27:46.511Z,2.62
2019-03-06T17:30:16.901Z,2.40
2019-03-06T17:32:56.699Z,2.75
2019-03-06T17:35:26.290Z,3.55
2019-03-06T17:37:55.212Z,2.40
2019-03-06T17:40:24.060Z,2.92
2019-03-06T17:42:53.228Z,2.40
2019-03-06T17:45:22.069Z,2.55
2019-03-06T17:47:50.991Z,2.65
2019-03-06T17:50:20.259Z,2.50
2019-03-06T17:52:49.179Z,2.50
2019-03-06T17:55:18.099Z,2.62
2019-03-06T17:57:46.959Z,2.77
2019-03-06T18:00:18.124Z,2.72
2019-03-06T18:02:47.044Z,2.65
2019-03-06T18:05:15.903Z,2.58
2019-03-06T18:07:44.763Z,2.55
2019-03-06T18:10:17.355Z,2.50
2019-03-06T18:12:46.267Z,2.42
2019-03-06T18:15:15.939Z,2.45
2019-03-06T18:17:45.136Z,2.80
2019-03-06T18:20:14.655Z,2.58
2019-03-06T18:22:43.511Z,2.58
2019-03-06T18:25:13.537Z,2.72
2019-03-06T18:27:42.394Z,3.02
2019-03-06T18:30:12.716Z,3.83
2019-03-06T18:32:41.819Z,3.00
2019-03-06T18:35:11.742Z,2.50
2019-03-06T18:37:40.670Z,3.00
2019-03-06T18:40:11.197Z,2.75
2019-03-06T18:42:40.361Z,2.80
2019-03-06T18:45:10.753Z,4.67
2019-03-06T18:47:39.679Z,7.90
2019-03-06T18:50:10.017Z,9.65
2019-03-06T18:52:38.875Z,9.60
2019-03-06T18:55:08.902Z,8.83
2019-03-06T18:57:37.763Z,4.90
2019-03-06T19:00:08.404Z,5.33
2019-03-06T19:02:37.575Z,4.05
2019-03-06T19:05:07.101Z,4.55
2019-03-06T19:07:36.017Z,4.40
2019-03-06T19:10:06.416Z,5.65
2019-03-06T19:12:35.619Z,4.15
2019-03-06T19:15:06.239Z,4.65
2019-03-06T19:17:35.667Z,5.30
2019-03-06T19:20:06.226Z,5.28
2019-03-06T19:22:35.307Z,5.33
2019-03-06T19:25:05.703Z,5.28
2019-03-06T19:27:34.559Z,4.67
2019-03-06T19:30:05.136Z,6.47
2019-03-06T19:32:34.552Z,6.50
2019-03-06T19:35:03.411Z,5.97
2019-03-06T19:37:32.503Z,5.85
2019-03-06T19:40:01.363Z,6.25
2019-03-06T19:42:30.271Z,8.03
2019-03-06T19:44:59.292Z,8.88
2019-03-06T19:47:28.160Z,8.13
2019-03-06T19:49:57.024Z,8.08
2019-03-06T19:52:25.960Z,8.55
2019-03-06T19:54:55.035Z,8.73
2019-03-06T19:57:23.899Z,9.85
2019-03-06T19:59:52.852Z,9.53
2019-03-06T20:02:21.729Z,8.95
2019-03-06T20:04:50.571Z,9.05
2019-03-06T20:07:19.440Z,8.00
2019-03-06T20:09:48.372Z,6.97
2019-03-06T20:12:17.228Z,7.55
2019-03-06T20:14:46.098Z,7.87
2019-03-06T20:17:15.147Z,7.30
2019-03-06T20:19:44.011Z,6.97
2019-03-06T20:22:12.871Z,6.85
2019-03-06T20:24:41.955Z,8.38
2019-03-06T20:27:10.807Z,8.90
2019-03-06T20:29:39.683Z,8.63
2019-03-06T20:32:08.708Z,7.85
2019-03-06T20:34:37.567Z,6.85
2019-03-06T20:37:06.432Z,6.78
2019-03-06T20:39:35.519Z,6.78
2019-03-06T20:42:04.526Z,7.72
2019-03-06T20:44:33.380Z,7.30
2019-03-06T20:47:02.231Z,8.88
2019-03-06T20:49:31.184Z,7.67
2019-03-06T20:52:00.040Z,6.85
2019-03-06T20:54:28.900Z,7.08
2019-03-06T20:56:57.775Z,5.50
2019-03-06T20:59:27.595Z,5.58
2019-03-06T21:01:56.444Z,5.45
2019-03-06T21:04:25.600Z,5.80
2019-03-06T21:06:54.465Z,6.40
2019-03-06T21:09:23.699Z,6.60
2019-03-06T21:11:52.564Z,6.45
2019-03-06T21:14:21.411Z,5.80
2019-03-06T21:16:50.271Z,5.50
2019-03-06T21:19:19.124Z,5.50
2019-03-06T21:21:48.000Z,5.45
2019-03-06T21:24:16.889Z,6.33
2019-03-06T21:26:45.815Z,6.17
2019-03-06T21:29:14.679Z,6.08
2019-03-06T21:31:43.531Z,5.80
2019-03-06T21:34:12.383Z,5.03
2019-03-06T21:36:41.244Z,4.97
2019-03-06T21:39:11.641Z,5.72
2019-03-06T21:41:41.080Z,5.60
2019-03-06T21:44:10.008Z,6.17
2019-03-06T21:46:39.251Z,7.20
2019-03-06T21:49:08.201Z,7.35
2019-03-06T21:51:37.296Z,7.35
2019-03-06T21:54:06.168Z,8.18
2019-03-06T21:56:35.191Z,8.18
2019-03-06T21:59:04.283Z,8.43
2019-03-06T22:01:33.139Z,7.28
2019-03-06T22:04:01.990Z,7.75
2019-03-06T22:06:30.929Z,9.83
2019-03-06T22:08:59.796Z,10.63
2019-03-06T22:11:30.279Z,8.75
2019-03-06T22:13:59.145Z,10.48
2019-03-06T22:16:28.008Z,9.45
2019-03-06T22:18:56.875Z,7.75
2019-03-06T22:21:25.741Z,6.75
2019-03-06T22:23:54.679Z,7.15
2019-03-06T22:26:23.918Z,8.15
2019-03-06T22:28:53.820Z,7.75
2019-03-06T22:31:22.916Z,8.08
2019-03-06T22:33:51.771Z,8.00
2019-03-06T22:36:20.631Z,7.30
2019-03-06T22:38:49.721Z,7.33
2019-03-06T22:41:18.660Z,7.25
2019-03-06T22:43:47.740Z,7.10
2019-03-06T22:46:16.619Z,7.78
2019-03-06T22:48:45.472Z,7.17
2019-03-06T22:51:14.331Z,7.87
2019-03-06T22:53:43.209Z,8.43
2019-03-06T22:56:12.300Z,8.58
2019-03-06T22:58:41.156Z,7.95
2019-03-06T23:01:11.562Z,7.37
2019-03-06T23:03:40.494Z,6.75
2019-03-06T23:06:09.354Z,6.83
2019-03-06T23:08:38.207Z,5.97
2019-03-06T23:11:07.217Z,5.92
2019-03-06T23:13:36.096Z,6.28
2019-03-06T23:16:05.176Z,5.72
2019-03-06T23:18:34.032Z,5.83
2019-03-06T23:21:03.863Z,6.17
2019-03-06T23:23:32.796Z,5.85
2019-03-06T23:26:01.663Z,5.70
2019-03-06T23:28:30.583Z,6.95
2019-03-06T23:30:59.442Z,7.05
2019-03-06T23:33:28.302Z,6.78
2019-03-06T23:35:57.368Z,5.80
2019-03-06T23:38:26.235Z,5.92
2019-03-06T23:40:55.084Z,5.72
2019-03-06T23:43:24.008Z,5.35
2019-03-06T23:45:52.864Z,5.80
2019-03-06T23:48:21.980Z,5.72
2019-03-06T23:50:50.830Z,6.10
2019-03-06T23:53:20.360Z,6.53
2019-03-06T23:55:49.229Z,6.83
2019-03-06T23:58:18.335Z,6.60
